createdAt,value
2018-10-04T00:00:03.594Z,68.00
2018-10-04T00:00:34.644Z,68.10
2018-10-04T00:01:05.688Z,68.00
2018-10-04T00:01:36.734Z,67.90
2018-10-04T00:02:07.783Z,67.90
2018-10-04T00:02:38.836Z,68.10
2018-10-04T00:03:09.883Z,68.00
2018-10-04T00:03:40.927Z,68.00
2018-10-04T00:04:11.971Z,68.00
2018-10-04T00:04:43.015Z,67.90
2018-10-04T00:05:14.071Z,68.00
2018-10-04T00:05:45.132Z,68.00
2018-10-04T00:06:16.180Z,68.00
2018-10-04T00:06:47.221Z,67.90
2018-10-04T00:07:18.267Z,68.00
2018-10-04T00:07:49.343Z,67.90
2018-10-04T00:08:20.379Z,67.80
2018-10-04T00:08:51.429Z,67.90
2018-10-04T00:09:22.477Z,68.00
2018-10-04T00:09:53.514Z,67.90
2018-10-04T00:10:24.559Z,67.80
2018-10-04T00:10:55.607Z,67.80
2018-10-04T00:11:26.675Z,67.80
2018-10-04T00:11:57.703Z,67.80
2018-10-04T00:12:28.750Z,68.40
2018-10-04T00:12:59.798Z,67.90
2018-10-04T00:13:30.847Z,67.80
2018-10-04T00:14:01.896Z,67.80
2018-10-04T00:14:32.940Z,67.80
2018-10-04T00:15:03.991Z,68.00
2018-10-04T00:15:35.054Z,67.80
2018-10-04T00:16:06.100Z,67.80
2018-10-04T00:16:37.143Z,67.80
2018-10-04T00:17:08.193Z,67.80
2018-10-04T00:17:39.236Z,67.80
2018-10-04T00:18:10.288Z,67.80
2018-10-04T00:18:41.339Z,67.80
2018-10-04T00:19:12.392Z,67.80
2018-10-04T00:19:43.431Z,67.70
2018-10-04T00:20:14.483Z,67.80
2018-10-04T00:20:45.535Z,67.80
2018-10-04T00:21:16.582Z,67.70
2018-10-04T00:21:47.633Z,67.70
2018-10-04T00:22:18.675Z,67.70
2018-10-04T00:22:49.719Z,67.70
2018-10-04T00:23:20.766Z,67.70
2018-10-04T00:23:51.817Z,67.70
2018-10-04T00:24:22.863Z,67.70
2018-10-04T00:24:53.907Z,67.70
2018-10-04T00:25:24.951Z,67.70
2018-10-04T00:25:56.005Z,67.70
2018-10-04T00:26:27.058Z,67.70
2018-10-04T00:26:58.095Z,67.70
2018-10-04T00:27:29.135Z,67.70
2018-10-04T00:28:00.187Z,68.50
2018-10-04T00:28:31.227Z,67.60
2018-10-04T00:29:02.275Z,67.60
2018-10-04T00:29:33.327Z,67.60
2018-10-04T00:30:04.381Z,67.60
2018-10-04T00:30:35.418Z,67.50
2018-10-04T00:31:06.480Z,67.60
2018-10-04T00:31:37.526Z,68.30
2018-10-04T00:32:08.572Z,67.50
2018-10-04T00:32:39.615Z,67.50
2018-10-04T00:33:10.663Z,67.80
2018-10-04T00:33:41.715Z,67.50
2018-10-04T00:34:12.760Z,67.50
2018-10-04T00:34:43.820Z,67.40
2018-10-04T00:35:14.863Z,67.40
2018-10-04T00:35:45.918Z,67.40
2018-10-04T00:36:16.979Z,67.40
2018-10-04T00:36:48.020Z,67.40
2018-10-04T00:37:19.059Z,67.50
2018-10-04T00:37:50.108Z,67.40
2018-10-04T00:38:21.163Z,67.50
2018-10-04T00:38:52.211Z,67.50
2018-10-04T00:39:23.272Z,67.50
2018-10-04T00:39:54.314Z,67.50
2018-10-04T00:40:25.379Z,67.80
2018-10-04T00:40:56.475Z,67.50
2018-10-04T00:41:27.509Z,67.50
2018-10-04T00:41:58.547Z,67.50
2018-10-04T00:42:29.602Z,67.50
2018-10-04T00:43:00.635Z,67.50
2018-10-04T00:43:31.687Z,67.50
2018-10-04T00:44:02.740Z,67.50
2018-10-04T00:44:33.791Z,67.10
2018-10-04T00:45:04.836Z,67.50
2018-10-04T00:45:35.887Z,67.50
2018-10-04T00:46:06.949Z,67.40
2018-10-04T00:46:37.992Z,67.50
2018-10-04T00:47:09.035Z,67.50
2018-10-04T00:47:40.079Z,67.50
2018-10-04T00:48:11.169Z,67.50
2018-10-04T00:48:42.219Z,67.50
2018-10-04T00:49:13.268Z,67.50
2018-10-04T00:49:44.317Z,67.40
2018-10-04T00:50:15.368Z,67.50
2018-10-04T00:50:46.412Z,67.50
2018-10-04T00:51:17.476Z,67.50
2018-10-04T00:51:48.523Z,67.50
2018-10-04T00:52:19.576Z,67.50
2018-10-04T00:52:50.627Z,67.50
2018-10-04T00:53:21.670Z,67.50
2018-10-04T00:53:52.717Z,67.40
2018-10-04T00:54:23.760Z,67.40
2018-10-04T00:54:54.802Z,67.40
2018-10-04T00:55:25.848Z,67.40
2018-10-04T00:55:56.895Z,67.40
2018-10-04T00:56:27.947Z,67.40
2018-10-04T00:56:58.995Z,67.40
2018-10-04T00:57:30.065Z,67.50
2018-10-04T00:58:01.087Z,67.40
2018-10-04T00:58:32.135Z,67.50
2018-10-04T00:59:03.180Z,67.50
2018-10-04T00:59:34.224Z,67.50
2018-10-04T01:00:05.280Z,67.50
2018-10-04T01:00:36.327Z,67.50
2018-10-04T01:01:07.375Z,67.50
2018-10-04T01:01:38.430Z,67.50
2018-10-04T01:02:09.472Z,67.50
2018-10-04T01:02:40.515Z,67.60
2018-10-04T01:03:11.559Z,67.50
2018-10-04T01:03:42.603Z,67.60
2018-10-04T01:04:13.659Z,67.60
2018-10-04T01:04:44.706Z,67.50
2018-10-04T01:05:15.783Z,67.50
2018-10-04T01:05:46.796Z,67.50
2018-10-04T01:06:17.837Z,67.50
2018-10-04T01:06:48.887Z,68.40
2018-10-04T01:07:19.927Z,67.50
2018-10-04T01:07:50.972Z,67.50
2018-10-04T01:08:22.012Z,67.50
2018-10-04T01:08:53.055Z,67.50
2018-10-04T01:09:24.095Z,67.50
2018-10-04T01:09:55.154Z,67.50
2018-10-04T01:10:26.194Z,67.50
2018-10-04T01:10:57.238Z,67.40
2018-10-04T01:11:28.287Z,67.30
2018-10-04T01:11:59.339Z,67.20
2018-10-04T01:12:30.388Z,67.20
2018-10-04T01:13:01.432Z,67.10
2018-10-04T01:13:32.475Z,67.00
2018-10-04T01:14:03.528Z,67.00
2018-10-04T01:14:34.574Z,67.00
2018-10-04T01:15:05.616Z,67.10
2018-10-04T01:15:36.665Z,68.00
2018-10-04T01:16:07.707Z,67.20
2018-10-04T01:16:38.746Z,67.20
2018-10-04T01:17:09.804Z,67.20
2018-10-04T01:17:40.841Z,67.20
2018-10-04T01:18:11.887Z,67.20
2018-10-04T01:18:42.931Z,67.20
2018-10-04T01:19:13.975Z,67.20
2018-10-04T01:19:45.024Z,68.00
2018-10-04T01:20:16.063Z,67.10
2018-10-04T01:20:47.106Z,67.10
2018-10-04T01:21:18.147Z,67.10
2018-10-04T01:21:49.192Z,67.70
2018-10-04T01:22:20.227Z,67.10
2018-10-04T01:22:51.280Z,67.10
2018-10-04T01:23:22.395Z,67.00
2018-10-04T01:23:53.447Z,67.10
2018-10-04T01:24:24.511Z,67.10
2018-10-04T01:24:55.544Z,67.80
2018-10-04T01:25:26.587Z,67.00
2018-10-04T01:25:57.631Z,67.10
2018-10-04T01:26:28.728Z,67.10
2018-10-04T01:26:59.775Z,67.10
2018-10-04T01:27:30.826Z,67.10
2018-10-04T01:28:01.875Z,67.00
2018-10-04T01:28:32.921Z,67.10
2018-10-04T01:29:03.972Z,67.00
2018-10-04T01:29:35.019Z,67.10
2018-10-04T01:30:06.067Z,67.80
2018-10-04T01:30:37.120Z,67.80
2018-10-04T01:31:08.164Z,67.00
2018-10-04T01:31:39.217Z,67.00
2018-10-04T01:32:10.276Z,67.80
2018-10-04T01:32:41.323Z,67.10
2018-10-04T01:33:12.376Z,67.10
2018-10-04T01:33:43.420Z,67.10
2018-10-04T01:34:14.489Z,66.40
2018-10-04T01:34:45.546Z,67.10
2018-10-04T01:35:16.595Z,67.10
2018-10-04T01:35:47.641Z,67.10
2018-10-04T01:36:18.687Z,67.60
2018-10-04T01:36:49.746Z,67.10
2018-10-04T01:37:20.795Z,67.10
2018-10-04T01:37:51.851Z,67.10
2018-10-04T01:38:22.891Z,67.10
2018-10-04T01:38:53.936Z,67.00
2018-10-04T01:39:24.983Z,67.10
2018-10-04T01:39:56.027Z,67.10
2018-10-04T01:40:27.080Z,67.10
2018-10-04T01:40:58.122Z,67.10
2018-10-04T01:41:29.167Z,67.20
2018-10-04T01:42:00.216Z,67.20
2018-10-04T01:42:31.274Z,67.20
2018-10-04T01:43:02.314Z,67.20
2018-10-04T01:43:33.360Z,67.10
2018-10-04T01:44:04.407Z,67.10
2018-10-04T01:44:35.456Z,67.10
2018-10-04T01:45:06.496Z,67.10
2018-10-04T01:45:37.548Z,67.10
2018-10-04T01:46:08.591Z,67.10
2018-10-04T01:46:39.643Z,67.10
2018-10-04T01:47:10.686Z,67.10
2018-10-04T01:47:41.748Z,67.10
2018-10-04T01:48:12.791Z,67.10
2018-10-04T01:48:43.830Z,67.10
2018-10-04T01:49:14.915Z,67.10
2018-10-04T01:49:46.351Z,67.10
2018-10-04T01:50:17.405Z,67.10
2018-10-04T01:50:48.455Z,67.10
2018-10-04T01:51:19.495Z,67.10
2018-10-04T01:51:50.539Z,67.10
2018-10-04T01:52:21.603Z,67.10
2018-10-04T01:52:52.647Z,67.10
2018-10-04T01:53:23.707Z,67.10
2018-10-04T01:53:54.748Z,67.80
2018-10-04T01:54:25.794Z,67.00
2018-10-04T01:54:56.848Z,67.10
2018-10-04T01:55:27.901Z,67.00
2018-10-04T01:55:58.947Z,67.50
2018-10-04T01:56:29.999Z,67.10
2018-10-04T01:57:01.087Z,67.10
2018-10-04T01:57:32.139Z,67.10
2018-10-04T01:58:03.189Z,67.10
2018-10-04T01:58:34.235Z,67.10
2018-10-04T01:59:05.285Z,67.10
2018-10-04T01:59:36.327Z,67.10
2018-10-04T02:00:07.375Z,67.10
2018-10-04T02:00:38.428Z,67.10
2018-10-04T02:01:09.479Z,67.10
2018-10-04T02:01:40.531Z,67.10
2018-10-04T02:02:11.583Z,67.10
2018-10-04T02:02:42.644Z,67.10
2018-10-04T02:03:13.695Z,67.00
2018-10-04T02:03:44.752Z,67.10
2018-10-04T02:04:15.791Z,67.10
2018-10-04T02:04:46.839Z,67.10
2018-10-04T02:05:17.894Z,67.10
2018-10-04T02:05:49.013Z,67.10
2018-10-04T02:06:20.063Z,67.10
2018-10-04T02:06:51.116Z,67.10
2018-10-04T02:07:22.153Z,67.10
2018-10-04T02:07:53.208Z,67.10
2018-10-04T02:08:24.252Z,67.10
2018-10-04T02:08:55.299Z,67.10
2018-10-04T02:09:26.346Z,67.10
2018-10-04T02:09:57.399Z,67.10
2018-10-04T02:10:28.439Z,67.10
2018-10-04T02:10:59.596Z,67.10
2018-10-04T02:11:30.642Z,67.00
2018-10-04T02:12:01.819Z,67.10
2018-10-04T02:12:32.735Z,67.10
2018-10-04T02:13:03.791Z,67.10
2018-10-04T02:13:34.847Z,67.10
2018-10-04T02:14:05.891Z,67.10
2018-10-04T02:14:36.944Z,67.10
2018-10-04T02:15:07.987Z,67.10
2018-10-04T02:15:39.030Z,67.90
2018-10-04T02:16:10.092Z,67.10
2018-10-04T02:16:41.131Z,67.10
2018-10-04T02:17:12.174Z,67.10
2018-10-04T02:17:43.218Z,67.10
2018-10-04T02:18:14.279Z,67.50
2018-10-04T02:18:45.330Z,67.10
2018-10-04T02:19:16.387Z,67.10
2018-10-04T02:19:47.436Z,67.10
2018-10-04T02:20:18.479Z,67.10
2018-10-04T02:20:49.539Z,67.10
2018-10-04T02:21:20.592Z,67.10
2018-10-04T02:21:51.632Z,67.10
2018-10-04T02:22:22.681Z,67.10
2018-10-04T02:22:53.723Z,67.10
2018-10-04T02:23:24.868Z,67.10
2018-10-04T02:23:55.911Z,67.10
2018-10-04T02:24:26.967Z,67.00
2018-10-04T02:24:58.007Z,67.00
2018-10-04T02:25:29.055Z,67.70
2018-10-04T02:26:00.104Z,67.00
2018-10-04T02:26:31.157Z,67.00
2018-10-04T02:27:02.204Z,67.00
2018-10-04T02:27:33.252Z,67.00
2018-10-04T02:28:04.331Z,67.00
2018-10-04T02:28:35.383Z,67.00
2018-10-04T02:29:06.427Z,67.00
2018-10-04T02:29:37.470Z,67.00
2018-10-04T02:30:08.530Z,67.00
2018-10-04T02:30:39.579Z,67.00
2018-10-04T02:31:10.626Z,67.00
2018-10-04T02:31:41.675Z,67.00
2018-10-04T02:32:12.723Z,67.00
2018-10-04T02:32:43.775Z,67.00
2018-10-04T02:33:14.832Z,67.00
2018-10-04T02:33:45.875Z,67.00
2018-10-04T02:34:16.915Z,67.00
2018-10-04T02:34:47.960Z,67.40
2018-10-04T02:35:19.008Z,67.00
2018-10-04T02:35:50.055Z,67.00
2018-10-04T02:36:21.119Z,67.00
2018-10-04T02:36:52.167Z,67.00
2018-10-04T02:37:23.215Z,67.00
2018-10-04T02:37:54.262Z,67.00
2018-10-04T02:38:25.322Z,67.00
2018-10-04T02:38:56.367Z,66.90
2018-10-04T02:39:27.415Z,67.50
2018-10-04T02:39:58.463Z,67.00
2018-10-04T02:40:29.514Z,67.00
2018-10-04T02:41:00.558Z,67.00
2018-10-04T02:41:31.600Z,67.00
2018-10-04T02:42:02.646Z,66.90
2018-10-04T02:42:33.755Z,67.00
2018-10-04T02:43:04.755Z,66.90
2018-10-04T02:43:35.800Z,66.90
2018-10-04T02:44:06.843Z,66.90
2018-10-04T02:44:37.887Z,66.90
2018-10-04T02:45:08.932Z,67.00
2018-10-04T02:45:39.980Z,66.90
2018-10-04T02:46:11.024Z,66.90
2018-10-04T02:46:42.071Z,66.80
2018-10-04T02:47:13.119Z,66.90
2018-10-04T02:47:44.167Z,66.90
2018-10-04T02:48:15.212Z,66.90
2018-10-04T02:48:46.324Z,66.90
2018-10-04T02:49:17.315Z,67.00
2018-10-04T02:49:48.363Z,67.00
2018-10-04T02:50:19.419Z,67.00
2018-10-04T02:50:50.466Z,67.00
2018-10-04T02:51:21.511Z,67.00
2018-10-04T02:51:52.553Z,67.00
2018-10-04T02:52:23.600Z,67.00
2018-10-04T02:52:54.642Z,67.00
2018-10-04T02:53:25.691Z,67.00
2018-10-04T02:53:56.743Z,67.10
2018-10-04T02:54:27.787Z,67.10
2018-10-04T02:54:58.837Z,67.10
2018-10-04T02:55:29.880Z,67.10
2018-10-04T02:56:00.933Z,67.10
2018-10-04T02:56:32.081Z,67.10
2018-10-04T02:57:03.110Z,67.10
2018-10-04T02:57:34.168Z,67.10
2018-10-04T02:58:05.221Z,67.00
2018-10-04T02:58:36.287Z,67.00
2018-10-04T02:59:07.344Z,66.90
2018-10-04T02:59:38.388Z,66.90
2018-10-04T03:00:09.439Z,67.50
2018-10-04T03:00:40.487Z,67.00
2018-10-04T03:01:11.551Z,66.90
2018-10-04T03:01:42.587Z,66.90
2018-10-04T03:02:13.628Z,66.90
2018-10-04T03:02:44.680Z,67.00
2018-10-04T03:03:15.722Z,66.90
2018-10-04T03:03:46.811Z,66.90
2018-10-04T03:04:17.862Z,66.90
2018-10-04T03:04:48.903Z,66.90
2018-10-04T03:05:19.951Z,66.80
2018-10-04T03:05:51.007Z,66.90
2018-10-04T03:06:22.058Z,66.90
2018-10-04T03:06:53.108Z,66.80
2018-10-04T03:07:24.154Z,66.80
2018-10-04T03:07:55.212Z,66.80
2018-10-04T03:08:26.261Z,66.80
2018-10-04T03:08:57.315Z,66.80
2018-10-04T03:09:28.367Z,66.90
2018-10-04T03:09:59.414Z,66.90
2018-10-04T03:10:30.463Z,66.80
2018-10-04T03:11:01.508Z,66.90
2018-10-04T03:11:32.559Z,67.70
2018-10-04T03:12:03.622Z,66.90
2018-10-04T03:12:34.655Z,66.90
2018-10-04T03:13:05.697Z,66.80
2018-10-04T03:13:36.743Z,66.90
2018-10-04T03:14:07.818Z,66.90
2018-10-04T03:14:38.852Z,67.00
2018-10-04T03:15:09.894Z,66.90
2018-10-04T03:15:40.938Z,66.90
2018-10-04T03:16:11.991Z,66.80
2018-10-04T03:16:43.040Z,66.80
2018-10-04T03:17:14.086Z,66.80
2018-10-04T03:17:45.131Z,66.80
2018-10-04T03:18:16.184Z,66.80
2018-10-04T03:18:47.228Z,66.80
2018-10-04T03:19:18.287Z,66.80
2018-10-04T03:19:49.335Z,66.90
2018-10-04T03:20:20.383Z,66.80
2018-10-04T03:20:51.431Z,66.80
2018-10-04T03:21:22.486Z,66.80
2018-10-04T03:21:53.536Z,66.80
2018-10-04T03:22:24.582Z,66.80
2018-10-04T03:22:55.647Z,66.80
2018-10-04T03:23:26.719Z,66.80
2018-10-04T03:23:57.764Z,66.80
2018-10-04T03:24:28.819Z,66.80
2018-10-04T03:24:59.867Z,66.80
2018-10-04T03:25:30.949Z,66.80
2018-10-04T03:26:01.993Z,66.80
2018-10-04T03:26:33.039Z,66.80
2018-10-04T03:27:04.086Z,66.80
2018-10-04T03:27:35.132Z,67.70
2018-10-04T03:28:06.176Z,66.80
2018-10-04T03:28:37.232Z,66.90
2018-10-04T03:29:08.274Z,67.00
2018-10-04T03:29:39.327Z,67.00
2018-10-04T03:30:10.506Z,67.00
2018-10-04T03:30:41.427Z,67.00
2018-10-04T03:31:12.471Z,67.00
2018-10-04T03:31:43.520Z,67.00
2018-10-04T03:32:14.567Z,67.00
2018-10-04T03:32:45.624Z,67.10
2018-10-04T03:33:16.670Z,67.10
2018-10-04T03:33:47.714Z,67.00
2018-10-04T03:34:18.780Z,67.00
2018-10-04T03:34:49.830Z,67.00
2018-10-04T03:35:20.868Z,67.00
2018-10-04T03:35:51.920Z,67.00
2018-10-04T03:36:22.956Z,66.90
2018-10-04T03:36:53.995Z,66.90
2018-10-04T03:37:25.042Z,66.90
2018-10-04T03:37:56.096Z,66.90
2018-10-04T03:38:27.134Z,66.90
2018-10-04T03:38:58.188Z,66.90
2018-10-04T03:39:29.242Z,66.80
2018-10-04T03:40:00.283Z,66.80
2018-10-04T03:40:31.327Z,66.80
2018-10-04T03:41:02.375Z,66.80
2018-10-04T03:41:33.415Z,66.80
2018-10-04T03:42:04.463Z,66.80
2018-10-04T03:42:35.512Z,66.80
2018-10-04T03:43:06.552Z,66.80
2018-10-04T03:43:37.596Z,66.80
2018-10-04T03:44:08.762Z,66.80
2018-10-04T03:44:39.795Z,66.80
2018-10-04T03:45:10.856Z,66.80
2018-10-04T03:45:41.907Z,66.80
2018-10-04T03:46:12.950Z,66.80
2018-10-04T03:46:44.015Z,66.80
2018-10-04T03:47:15.072Z,66.80
2018-10-04T03:47:46.114Z,66.80
2018-10-04T03:48:17.150Z,66.80
2018-10-04T03:48:48.199Z,66.80
2018-10-04T03:49:19.267Z,66.80
2018-10-04T03:49:50.312Z,67.60
2018-10-04T03:50:21.417Z,66.80
2018-10-04T03:50:52.428Z,66.80
2018-10-04T03:51:23.470Z,66.80
2018-10-04T03:51:54.516Z,66.90
2018-10-04T03:52:25.560Z,66.90
2018-10-04T03:52:56.611Z,66.90
2018-10-04T03:53:27.655Z,66.90
2018-10-04T03:53:58.702Z,66.80
2018-10-04T03:54:29.743Z,66.90
2018-10-04T03:55:00.803Z,66.80
2018-10-04T03:55:31.859Z,66.80
2018-10-04T03:56:02.892Z,67.50
2018-10-04T03:56:33.943Z,66.50
2018-10-04T03:57:04.985Z,66.40
2018-10-04T03:57:36.027Z,66.40
2018-10-04T03:58:07.070Z,66.50
2018-10-04T03:58:38.120Z,66.40
2018-10-04T03:59:09.168Z,66.40
2018-10-04T03:59:40.224Z,66.40
2018-10-04T04:00:11.269Z,66.30
2018-10-04T04:00:42.317Z,66.90
2018-10-04T04:01:13.358Z,66.30
2018-10-04T04:01:44.408Z,66.30
2018-10-04T04:02:15.451Z,66.30
2018-10-04T04:02:46.502Z,66.40
2018-10-04T04:03:17.549Z,66.40
2018-10-04T04:03:48.615Z,66.40
2018-10-04T04:04:19.655Z,67.20
2018-10-04T04:04:50.700Z,66.40
2018-10-04T04:05:21.749Z,66.40
2018-10-04T04:05:52.800Z,66.40
2018-10-04T04:06:23.839Z,66.30
2018-10-04T04:06:54.889Z,66.30
2018-10-04T04:07:25.931Z,66.30
2018-10-04T04:07:56.980Z,66.20
2018-10-04T04:08:28.123Z,66.30
2018-10-04T04:08:59.145Z,66.40
2018-10-04T04:09:30.187Z,66.40
2018-10-04T04:10:01.249Z,66.10
2018-10-04T04:10:32.295Z,66.10
2018-10-04T04:11:03.340Z,66.10
2018-10-04T04:11:34.467Z,66.00
2018-10-04T04:12:05.442Z,66.00
2018-10-04T04:12:36.495Z,65.90
2018-10-04T04:13:07.539Z,65.90
2018-10-04T04:13:38.584Z,65.80
2018-10-04T04:14:09.636Z,66.00
2018-10-04T04:14:40.680Z,65.90
2018-10-04T04:15:11.735Z,66.00
2018-10-04T04:15:42.774Z,65.90
2018-10-04T04:16:13.820Z,65.90
2018-10-04T04:16:44.859Z,65.90
2018-10-04T04:17:15.911Z,66.70
2018-10-04T04:17:46.956Z,65.90
2018-10-04T04:18:17.999Z,65.80
2018-10-04T04:18:49.051Z,65.80
2018-10-04T04:19:20.095Z,65.80
2018-10-04T04:19:51.144Z,65.80
2018-10-04T04:20:22.200Z,65.80
2018-10-04T04:20:53.327Z,65.80
2018-10-04T04:21:24.371Z,65.80
2018-10-04T04:21:55.418Z,65.70
2018-10-04T04:22:26.635Z,65.80
2018-10-04T04:22:57.579Z,65.70
2018-10-04T04:23:28.646Z,65.70
2018-10-04T04:23:59.666Z,65.70
2018-10-04T04:24:30.718Z,65.70
2018-10-04T04:25:01.775Z,65.60
2018-10-04T04:25:32.815Z,65.70
2018-10-04T04:26:03.864Z,65.60
2018-10-04T04:26:34.943Z,65.70
2018-10-04T04:27:05.992Z,65.60
2018-10-04T04:27:37.034Z,65.60
2018-10-04T04:28:08.074Z,65.60
2018-10-04T04:28:39.125Z,65.70
2018-10-04T04:29:10.165Z,65.70
2018-10-04T04:29:41.211Z,65.60
2018-10-04T04:30:12.264Z,65.70
2018-10-04T04:30:43.399Z,66.40
2018-10-04T04:31:14.374Z,65.50
2018-10-04T04:31:45.439Z,65.70
2018-10-04T04:32:16.462Z,65.50
2018-10-04T04:32:47.532Z,65.60
2018-10-04T04:33:18.556Z,65.50
2018-10-04T04:33:49.605Z,65.60
2018-10-04T04:34:20.648Z,65.50
2018-10-04T04:34:51.691Z,65.50
2018-10-04T04:35:22.742Z,65.50
2018-10-04T04:35:53.823Z,65.50
2018-10-04T04:36:24.857Z,65.50
2018-10-04T04:36:55.904Z,65.50
2018-10-04T04:37:26.979Z,65.40
2018-10-04T04:37:58.024Z,65.40
2018-10-04T04:38:29.076Z,65.40
2018-10-04T04:39:00.131Z,65.50
2018-10-04T04:39:31.243Z,65.50
2018-10-04T04:40:02.287Z,65.50
2018-10-04T04:40:33.332Z,65.40
2018-10-04T04:41:04.389Z,65.50
2018-10-04T04:41:35.430Z,65.50
2018-10-04T04:42:06.471Z,65.50
2018-10-04T04:42:37.515Z,65.50
2018-10-04T04:43:08.563Z,65.50
2018-10-04T04:43:39.611Z,65.50
2018-10-04T04:44:10.652Z,65.50
2018-10-04T04:44:41.696Z,65.50
2018-10-04T04:45:12.738Z,65.50
2018-10-04T04:45:43.780Z,65.50
2018-10-04T04:46:14.837Z,65.50
2018-10-04T04:46:46.012Z,65.50
2018-10-04T04:47:17.004Z,65.50
2018-10-04T04:47:47.971Z,65.50
2018-10-04T04:48:19.015Z,65.50
2018-10-04T04:48:50.068Z,65.50
2018-10-04T04:49:21.111Z,65.50
2018-10-04T04:49:52.155Z,65.50
2018-10-04T04:50:23.199Z,65.50
2018-10-04T04:50:54.244Z,65.50
2018-10-04T04:52:02.036Z,65.40
2018-10-04T04:52:33.111Z,65.50
2018-10-04T04:53:04.132Z,65.50
2018-10-04T04:53:35.170Z,65.40
2018-10-04T04:54:06.216Z,66.20
2018-10-04T04:54:37.261Z,65.10
2018-10-04T04:55:08.305Z,65.50
2018-10-04T04:55:39.353Z,65.40
2018-10-04T04:56:10.407Z,65.40
2018-10-04T04:56:41.447Z,65.40
2018-10-04T04:57:12.491Z,65.40
2018-10-04T04:57:43.544Z,65.40
2018-10-04T04:58:14.587Z,65.40
2018-10-04T04:58:45.630Z,65.40
2018-10-04T04:59:16.674Z,65.40
2018-10-04T04:59:47.711Z,65.40
2018-10-04T05:00:18.763Z,65.40
2018-10-04T05:00:49.807Z,65.40
2018-10-04T05:01:20.864Z,65.30
2018-10-04T05:01:51.906Z,65.30
2018-10-04T05:02:22.947Z,65.30
2018-10-04T05:02:53.991Z,65.40
2018-10-04T05:03:25.127Z,65.60
2018-10-04T05:03:56.153Z,65.40
2018-10-04T05:04:27.200Z,65.50
2018-10-04T05:04:58.239Z,65.40
2018-10-04T05:05:29.279Z,65.40
2018-10-04T05:06:00.337Z,65.40
2018-10-04T05:06:31.443Z,65.40
2018-10-04T05:07:02.435Z,65.40
2018-10-04T05:07:33.479Z,65.40
2018-10-04T05:08:04.536Z,65.40
2018-10-04T05:08:35.578Z,65.40
2018-10-04T05:09:06.618Z,65.40
2018-10-04T05:09:37.711Z,65.40
2018-10-04T05:10:08.713Z,65.40
2018-10-04T05:10:39.751Z,65.40
2018-10-04T05:11:10.800Z,65.40
2018-10-04T05:11:41.856Z,65.40
2018-10-04T05:12:12.903Z,65.40
2018-10-04T05:12:43.955Z,65.50
2018-10-04T05:13:15.004Z,65.40
2018-10-04T05:13:46.057Z,65.40
2018-10-04T05:14:17.103Z,65.40
2018-10-04T05:14:48.153Z,65.20
2018-10-04T05:15:19.197Z,65.20
2018-10-04T05:15:50.281Z,65.10
2018-10-04T05:16:21.307Z,65.10
2018-10-04T05:16:52.346Z,65.10
2018-10-04T05:17:23.400Z,65.10
2018-10-04T05:17:54.443Z,65.20
2018-10-04T05:18:25.493Z,65.20
2018-10-04T05:18:56.542Z,65.20
2018-10-04T05:19:27.579Z,65.20
2018-10-04T05:19:58.624Z,65.20
2018-10-04T05:20:29.690Z,65.20
2018-10-04T05:21:00.718Z,65.20
2018-10-04T05:21:31.769Z,65.20
2018-10-04T05:22:02.811Z,65.20
2018-10-04T05:22:33.856Z,65.10
2018-10-04T05:23:04.899Z,65.20
2018-10-04T05:23:35.943Z,65.20
2018-10-04T05:24:07.000Z,65.20
2018-10-04T05:24:38.033Z,65.20
2018-10-04T05:25:09.075Z,65.10
2018-10-04T05:25:40.119Z,65.20
2018-10-04T05:26:11.163Z,65.00
2018-10-04T05:26:42.231Z,65.20
2018-10-04T05:27:13.280Z,65.10
2018-10-04T05:27:44.346Z,65.10
2018-10-04T05:28:15.379Z,65.10
2018-10-04T05:28:46.427Z,65.20
2018-10-04T05:29:17.483Z,65.10
2018-10-04T05:29:48.531Z,65.10
2018-10-04T05:30:19.571Z,65.10
2018-10-04T05:30:50.615Z,65.30
2018-10-04T05:31:21.664Z,65.10
2018-10-04T05:31:52.719Z,65.10
2018-10-04T05:32:23.765Z,65.10
2018-10-04T05:32:54.803Z,65.00
2018-10-04T05:33:25.855Z,65.10
2018-10-04T05:33:56.900Z,65.10
2018-10-04T05:34:27.947Z,65.00
2018-10-04T05:34:58.991Z,65.10
2018-10-04T05:35:30.039Z,65.10
2018-10-04T05:36:01.079Z,65.10
2018-10-04T05:36:32.135Z,65.10
2018-10-04T05:37:03.230Z,65.10
2018-10-04T05:37:34.302Z,65.10
2018-10-04T05:38:05.284Z,65.10
2018-10-04T05:38:36.317Z,65.90
2018-10-04T05:39:07.362Z,65.90
2018-10-04T05:39:38.418Z,65.10
2018-10-04T05:40:09.470Z,65.10
2018-10-04T05:40:40.515Z,65.10
2018-10-04T05:41:11.559Z,65.10
2018-10-04T05:41:42.623Z,65.10
2018-10-04T05:42:13.675Z,65.20
2018-10-04T05:42:44.724Z,65.20
2018-10-04T05:43:15.767Z,65.10
2018-10-04T05:43:46.814Z,65.00
2018-10-04T05:44:17.859Z,65.00
2018-10-04T05:44:48.927Z,64.80
2018-10-04T05:45:20.027Z,64.80
2018-10-04T05:45:51.012Z,64.80
2018-10-04T05:46:22.055Z,64.70
2018-10-04T05:46:53.103Z,64.70
2018-10-04T05:47:24.151Z,64.80
2018-10-04T05:47:55.195Z,64.90
2018-10-04T05:48:26.239Z,64.90
2018-10-04T05:48:57.307Z,64.90
2018-10-04T05:49:28.360Z,65.00
2018-10-04T05:49:59.398Z,65.00
2018-10-04T05:50:30.518Z,65.00
2018-10-04T05:51:01.551Z,65.00
2018-10-04T05:51:32.594Z,64.90
2018-10-04T05:52:03.650Z,65.00
2018-10-04T05:52:34.711Z,65.00
2018-10-04T05:53:05.818Z,64.90
2018-10-04T05:53:36.815Z,65.00
2018-10-04T05:54:07.859Z,64.90
2018-10-04T05:54:38.903Z,64.90
2018-10-04T05:55:09.951Z,65.00
2018-10-04T05:55:40.995Z,65.00
2018-10-04T05:56:12.034Z,65.00
2018-10-04T05:56:43.080Z,65.00
2018-10-04T05:57:14.133Z,65.00
2018-10-04T05:57:45.178Z,65.00
2018-10-04T05:58:16.235Z,65.00
2018-10-04T05:58:47.305Z,65.00
2018-10-04T05:59:18.380Z,65.00
2018-10-04T05:59:49.395Z,65.00
2018-10-04T06:00:20.444Z,65.00
2018-10-04T06:00:51.491Z,65.00
2018-10-04T06:01:22.537Z,65.00
2018-10-04T06:01:53.585Z,65.00
2018-10-04T06:02:24.623Z,65.10
2018-10-04T06:02:55.688Z,65.10
2018-10-04T06:03:26.730Z,65.10
2018-10-04T06:03:57.774Z,65.00
2018-10-04T06:04:28.820Z,65.00
2018-10-04T06:05:00.042Z,65.00
2018-10-04T06:05:30.912Z,65.00
2018-10-04T06:06:01.959Z,65.00
2018-10-04T06:06:32.999Z,65.00
2018-10-04T06:07:04.059Z,65.00
2018-10-04T06:07:35.103Z,65.00
2018-10-04T06:08:06.151Z,65.10
2018-10-04T06:08:37.195Z,65.00
2018-10-04T06:09:08.243Z,65.00
2018-10-04T06:09:39.295Z,65.00
2018-10-04T06:10:10.339Z,65.10
2018-10-04T06:10:41.398Z,65.10
2018-10-04T06:11:12.435Z,65.10
2018-10-04T06:11:43.479Z,65.10
2018-10-04T06:12:14.535Z,65.10
2018-10-04T06:12:45.578Z,65.10
2018-10-04T06:13:16.623Z,65.00
2018-10-04T06:13:47.669Z,65.00
2018-10-04T06:14:18.707Z,65.00
2018-10-04T06:14:49.772Z,65.00
2018-10-04T06:15:20.812Z,65.00
2018-10-04T06:15:51.831Z,65.10
2018-10-04T06:16:22.887Z,65.70
2018-10-04T06:16:53.919Z,65.10
2018-10-04T06:17:24.985Z,65.00
2018-10-04T06:17:56.031Z,64.90
2018-10-04T06:18:27.067Z,64.90
2018-10-04T06:18:58.112Z,64.80
2018-10-04T06:19:29.155Z,64.80
2018-10-04T06:20:00.203Z,64.80
2018-10-04T06:20:31.246Z,64.80
2018-10-04T06:21:02.286Z,64.80
2018-10-04T06:21:33.335Z,64.80
2018-10-04T06:22:04.466Z,64.90
2018-10-04T06:22:35.418Z,64.90
2018-10-04T06:23:06.490Z,65.70
2018-10-04T06:23:37.532Z,65.00
2018-10-04T06:24:08.570Z,65.00
2018-10-04T06:24:39.619Z,65.00
2018-10-04T06:25:10.663Z,65.10
2018-10-04T06:25:41.711Z,64.90
2018-10-04T06:26:12.756Z,65.00
2018-10-04T06:26:43.794Z,65.00
2018-10-04T06:27:14.840Z,65.00
2018-10-04T06:27:45.903Z,65.00
2018-10-04T06:28:16.960Z,65.00
2018-10-04T06:28:48.111Z,65.00
2018-10-04T06:29:19.051Z,64.90
2018-10-04T06:29:50.097Z,64.90
2018-10-04T06:30:21.149Z,64.90
2018-10-04T06:30:52.200Z,64.90
2018-10-04T06:31:23.243Z,64.90
2018-10-04T06:31:54.291Z,64.90
2018-10-04T06:32:25.340Z,65.00
2018-10-04T06:32:56.402Z,65.00
2018-10-04T06:33:27.443Z,65.00
2018-10-04T06:33:58.495Z,65.00
2018-10-04T06:34:29.535Z,65.00
2018-10-04T06:35:00.606Z,65.00
2018-10-04T06:35:31.651Z,65.00
2018-10-04T06:36:02.699Z,65.00
2018-10-04T06:36:33.744Z,64.90
2018-10-04T06:37:04.795Z,65.00
2018-10-04T06:37:35.868Z,65.00
2018-10-04T06:38:06.914Z,65.00
2018-10-04T06:38:37.959Z,65.00
2018-10-04T06:39:09.007Z,65.00
2018-10-04T06:39:40.066Z,65.00
2018-10-04T06:40:11.194Z,65.00